Time;durP1;ratioP1;P1;durP2;ratioP2;P2;SDS_P1;SDS_P2;PMS_P1;PMS_P2;Temp;Humidity;BMP_temperature;BMP_pressure;BME280_temperature;BME280_humidity;BME280_pressure;Samples;Min_cycle;Max_cycle;Signal;HPM_P1;HPM_P2
2023/06/09 00:02:07;;;;;;;10.63;8.00;;;14.40;1.00;;;;;;5013695;28;20283;-56
2023/06/09 00:04:35;;;;;;;17.00;8.47;;;14.30;1.00;;;;;;5013495;28;20269;-55
2023/06/09 00:07:02;;;;;;;13.03;8.30;;;14.30;1.00;;;;;;5013626;28;20206;-55
2023/06/09 00:09:29;;;;;;;13.07;7.70;;;14.20;1.00;;;;;;5014162;28;20432;-54
2023/06/09 00:11:54;;;;;;;12.83;7.50;;;14.20;1.00;;;;;;5017713;28;20502;-54
2023/06/09 00:14:20;;;;;;;11.90;7.80;;;14.10;1.00;;;;;;5017660;28;20506;-56
2023/06/09 00:16:46;;;;;;;17.83;8.17;;;14.10;1.00;;;;;;5017514;28;20521;-56
2023/06/09 00:19:16;;;;;;;14.60;8.17;;;14.10;1.00;;;;;;5017449;28;20450;-55
2023/06/09 00:21:49;;;;;;;11.07;7.53;;;14.00;1.00;;;;;;5017156;28;20188;-55
2023/06/09 00:24:15;;;;;;;33.67;21.30;;;14.00;23.90;;;;;;5017352;28;20477;-56
2023/06/09 00:26:41;;;;;;;66.03;38.67;;;13.90;14.50;;;;;;5017231;28;20489;-55
2023/06/09 00:29:07;;;;;;;83.80;52.70;;;13.90;19.40;;;;;;5016919;28;20452;-56
2023/06/09 00:31:32;;;;;;;55.17;32.97;;;13.90;20.30;;;;;;5016829;28;20583;-57
2023/06/09 00:33:58;;;;;;;25.40;16.70;;;13.90;16.50;;;;;;5017405;28;20184;-55
2023/06/09 00:36:23;;;;;;;17.87;10.20;;;13.90;32.40;;;;;;5017284;28;20598;-55
2023/06/09 00:38:49;;;;;;;15.33;9.20;;;13.80;48.70;;;;;;5016677;28;20176;-56
2023/06/09 00:41:14;;;;;;;14.10;9.00;;;13.80;57.20;;;;;;5017054;28;20215;-56
2023/06/09 00:43:45;;;;;;;13.23;8.60;;;13.80;62.80;;;;;;5016897;28;20219;-57
2023/06/09 00:46:11;;;;;;;16.50;8.27;;;13.80;71.50;;;;;;5016836;28;20173;-56
2023/06/09 00:48:37;;;;;;;14.27;7.90;;;13.70;99.10;;;;;;5017069;28;21304;-56
2023/06/09 00:51:02;;;;;;;14.03;8.47;;;13.60;99.90;;;;;;5016687;28;20722;-56
2023/06/09 00:53:28;;;;;;;15.07;8.30;;;13.60;99.90;;;;;;5016379;28;20240;-54
2023/06/09 00:55:54;;;;;;;20.07;8.83;;;13.50;99.90;;;;;;5016454;28;20185;-56
2023/06/09 00:58:21;;;;;;;12.93;7.93;;;13.40;99.90;;;;;;5016720;28;20436;-56
2023/06/09 01:00:47;;;;;;;13.07;8.20;;;13.40;99.90;;;;;;5015603;28;20690;-54
2023/06/09 01:03:12;;;;;;;16.13;8.57;;;13.40;99.90;;;;;;5016046;28;20419;-56
2023/06/09 01:05:39;;;;;;;12.17;8.00;;;13.30;99.90;;;;;;5016501;28;20537;-55
2023/06/09 01:08:32;;;;;;;11.80;7.73;;;13.30;99.90;;;;;;5016586;28;20215;-58
2023/06/09 01:11:05;;;;;;;14.67;7.97;;;13.30;99.90;;;;;;5016486;28;20907;-56
2023/06/09 01:13:51;;;;;;;15.20;8.10;;;13.30;99.90;;;;;;5016308;28;20451;-56
2023/06/09 01:16:44;;;;;;;14.13;7.83;;;13.20;99.90;;;;;;5016420;28;20418;-54
2023/06/09 01:19:24;;;;;;;13.53;8.90;;;13.10;99.90;;;;;;5015488;28;20431;-54
2023/06/09 01:21:53;;;;;;;15.40;8.80;;;13.10;1.00;;;;;;5016113;28;20542;-54
2023/06/09 01:24:45;;;;;;;14.97;9.00;;;13.10;99.90;;;;;;5015758;28;20411;-54
2023/06/09 01:27:12;;;;;;;11.77;8.20;;;13.10;99.90;;;;;;5016092;28;20455;-54
2023/06/09 01:29:40;;;;;;;15.33;8.77;;;13.10;1.00;;;;;;5016325;28;20426;-54
2023/06/09 01:32:08;;;;;;;13.57;8.47;;;13.00;1.00;;;;;;5015907;28;20482;-54
2023/06/09 01:34:34;;;;;;;16.10;9.30;;;13.00;1.00;;;;;;5015759;28;20903;-54
2023/06/09 01:37:00;;;;;;;17.80;9.23;;;13.00;1.00;;;;;;5015659;28;20427;-52
2023/06/09 01:39:26;;;;;;;11.97;8.60;;;12.90;1.00;;;;;;5015435;28;20947;-55
2023/06/09 01:41:52;;;;;;;14.20;8.07;;;12.90;1.00;;;;;;5015693;28;20510;-54
2023/06/09 01:44:18;;;;;;;16.60;9.73;;;12.90;1.00;;;;;;5014149;28;20547;-53
2023/06/09 01:46:44;;;;;;;17.40;9.03;;;12.80;1.00;;;;;;5015562;28;20204;-54
2023/06/09 01:49:35;;;;;;;15.37;9.40;;;12.70;1.00;;;;;;5015901;28;20212;-54
2023/06/09 01:52:07;;;;;;;13.93;8.70;;;12.70;1.00;;;;;;5014577;28;20711;-54
2023/06/09 01:54:58;;;;;;;15.37;9.10;;;12.70;1.00;;;;;;5015927;28;20451;-55
2023/06/09 01:57:32;;;;;;;16.00;9.23;;;12.60;1.00;;;;;;5015641;28;20510;-53
2023/06/09 02:00:05;;;;;;;18.60;10.80;;;12.60;1.00;;;;;;5015698;28;20411;-55
2023/06/09 02:02:32;;;;;;;17.20;10.40;;;12.50;57.80;;;;;;5015336;28;20435;-54
2023/06/09 02:04:59;;;;;;;19.10;10.30;;;12.50;99.90;;;;;;5015476;28;20419;-54
2023/06/09 02:07:26;;;;;;;21.20;10.47;;;12.40;99.90;;;;;;5015232;28;20853;-53
2023/06/09 02:09:52;;;;;;;21.73;10.50;;;12.40;99.90;;;;;;5015584;28;20422;-53
2023/06/09 02:12:17;;;;;;;24.97;10.70;;;12.40;99.90;;;;;;5015622;28;20757;-54
2023/06/09 02:14:43;;;;;;;20.43;10.97;;;12.30;99.90;;;;;;5015649;28;20193;-54
2023/06/09 02:17:09;;;;;;;15.63;10.80;;;12.40;99.90;;;;;;5015219;28;20219;-54
2023/06/09 02:19:38;;;;;;;18.60;9.67;;;12.40;99.90;;;;;;5015440;28;20234;-54
2023/06/09 02:22:07;;;;;;;12.97;9.27;;;12.40;99.90;;;;;;5015024;28;20188;-54
2023/06/09 02:24:34;;;;;;;17.40;9.20;;;12.40;1.00;;;;;;5014909;28;20970;-54
2023/06/09 02:27:01;;;;;;;14.87;9.70;;;12.40;1.00;;;;;;5014987;28;20551;-54
2023/06/09 02:29:27;;;;;;;13.53;9.77;;;12.40;1.00;;;;;;5014789;28;20445;-53
2023/06/09 02:31:54;;;;;;;12.83;9.60;;;12.30;1.00;;;;;;5014445;28;20415;-53
2023/06/09 02:34:22;;;;;;;15.43;9.53;;;12.30;1.00;;;;;;5014854;28;20196;-54
2023/06/09 02:36:52;;;;;;;20.13;9.90;;;12.30;1.00;;;;;;5014935;28;20427;-53
2023/06/09 02:39:18;;;;;;;14.50;9.43;;;12.30;1.00;;;;;;5015180;28;20498;-54
2023/06/09 02:41:44;;;;;;;16.60;11.10;;;12.30;1.00;;;;;;5014326;28;20415;-53
2023/06/09 02:44:10;;;;;;;18.60;10.50;;;12.30;1.00;;;;;;5014889;28;20422;-53
2023/06/09 02:46:36;;;;;;;16.53;10.70;;;12.20;1.00;;;;;;5014356;28;20208;-53
2023/06/09 02:49:02;;;;;;;12.70;9.13;;;12.10;21.10;;;;;;5014573;28;20537;-53
2023/06/09 02:51:27;;;;;;;17.23;10.77;;;12.10;99.90;;;;;;5014659;28;20423;-54
2023/06/09 02:53:53;;;;;;;15.20;10.83;;;12.10;99.90;;;;;;5014258;28;20287;-53
2023/06/09 02:56:18;;;;;;;16.93;10.93;;;12.10;99.90;;;;;;5014445;28;20179;-53
2023/06/09 02:58:44;;;;;;;27.30;11.30;;;12.10;99.90;;;;;;5014398;28;20216;-53
2023/06/09 03:01:11;;;;;;;15.10;10.70;;;12.10;99.90;;;;;;5014665;28;20184;-54
2023/06/09 03:03:38;;;;;;;23.07;10.80;;;12.00;1.00;;;;;;5014281;28;20192;-53
2023/06/09 03:06:07;;;;;;;18.97;10.77;;;12.00;1.00;;;;;;5013768;28;20901;-53
2023/06/09 03:08:33;;;;;;;15.43;10.67;;;12.00;1.00;;;;;;5014278;28;20505;-54
2023/06/09 03:10:58;;;;;;;17.83;10.30;;;12.00;86.20;;;;;;5013839;28;20450;-53
2023/06/09 03:13:24;;;;;;;17.33;9.47;;;12.00;1.00;;;;;;5013974;28;20180;-54
2023/06/09 03:15:50;;;;;;;18.77;10.60;;;12.00;1.00;;;;;;5014124;28;20267;-53
2023/06/09 03:18:16;;;;;;;17.97;10.00;;;12.00;99.90;;;;;;5014160;28;20184;-54
2023/06/09 03:20:42;;;;;;;16.83;9.97;;;12.10;99.90;;;;;;5014258;28;20419;-54
2023/06/09 03:23:08;;;;;;;17.93;10.57;;;12.10;20.10;;;;;;5014287;28;20428;-53
2023/06/09 03:25:34;;;;;;;16.03;10.03;;;12.10;1.00;;;;;;5014410;28;20423;-54
2023/06/09 03:28:00;;;;;;;16.93;9.70;;;12.10;1.00;;;;;;5013974;28;20481;-53
2023/06/09 03:30:26;;;;;;;18.67;9.63;;;12.10;1.00;;;;;;5013754;28;20259;-53
2023/06/09 03:32:51;;;;;;;16.90;9.83;;;12.20;1.00;;;;;;5013921;28;20227;-53
2023/06/09 03:35:17;;;;;;;17.03;10.10;;;12.10;99.90;;;;;;5013711;28;20176;-53
2023/06/09 03:37:43;;;;;;;15.87;10.10;;;12.20;1.00;;;;;;5013953;28;20188;-53
2023/06/09 03:40:09;;;;;;;18.80;10.40;;;12.20;1.00;;;;;;5013542;28;20187;-53
2023/06/09 03:42:35;;;;;;;13.40;8.80;;;12.20;99.90;;;;;;5013703;28;20259;-54
2023/06/09 03:45:01;;;;;;;19.60;9.73;;;12.20;99.90;;;;;;5013722;28;20979;-52
2023/06/09 03:47:26;;;;;;;18.37;10.07;;;12.30;99.90;;;;;;5013378;28;20459;-52
2023/06/09 03:49:52;;;;;;;17.83;10.67;;;12.30;99.90;;;;;;5013595;28;20227;-53
2023/06/09 03:52:19;;;;;;;21.10;9.93;;;12.30;99.90;;;;;;5013534;28;20237;-53
2023/06/09 03:54:45;;;;;;;16.67;10.27;;;12.30;36.80;;;;;;5014103;28;20184;-54
2023/06/09 03:57:11;;;;;;;16.30;9.43;;;12.30;1.00;;;;;;5013902;28;20421;-53
2023/06/09 03:59:36;;;;;;;20.20;9.90;;;12.40;77.40;;;;;;5013875;28;20250;-53
2023/06/09 04:02:02;;;;;;;14.37;8.90;;;12.40;1.00;;;;;;5013693;28;20184;-54
2023/06/09 04:04:28;;;;;;;14.93;9.47;;;12.40;1.00;;;;;;5013473;28;20191;-53
2023/06/09 04:06:56;;;;;;;14.40;8.77;;;12.50;1.00;;;;;;5013743;28;20199;-54
2023/06/09 04:09:22;;;;;;;15.07;10.00;;;12.50;1.00;;;;;;5013676;28;20199;-54
2023/06/09 04:11:47;;;;;;;16.27;9.40;;;12.60;99.90;;;;;;5013574;28;20419;-54
2023/06/09 04:14:13;;;;;;;17.40;9.70;;;12.70;99.90;;;;;;5013529;28;20558;-54
2023/06/09 04:16:38;;;;;;;19.57;10.20;;;12.70;99.90;;;;;;5013456;28;20203;-53
2023/06/09 04:19:04;;;;;;;18.13;9.90;;;12.80;99.90;;;;;;5013095;28;20180;-54
2023/06/09 04:21:30;;;;;;;18.57;9.57;;;12.80;99.90;;;;;;5013239;28;20188;-53
2023/06/09 04:23:56;;;;;;;12.40;8.00;;;12.90;99.90;;;;;;5013310;28;20416;-54
2023/06/09 04:26:21;;;;;;;17.57;9.10;;;13.00;20.40;;;;;;5013596;28;20234;-54
2023/06/09 04:28:47;;;;;;;13.50;8.13;;;13.20;1.00;;;;;;5013448;28;20550;-54
2023/06/09 04:31:13;;;;;;;16.67;9.20;;;13.30;1.00;;;;;;5013440;28;20651;-55
2023/06/09 04:33:39;;;;;;;14.90;8.80;;;13.40;1.00;;;;;;5013579;28;20652;-54
2023/06/09 04:36:05;;;;;;;15.97;8.10;;;13.60;99.90;;;;;;5013121;28;20206;-53
2023/06/09 04:38:35;;;;;;;16.40;8.10;;;13.80;99.90;;;;;;5013395;28;20423;-53
2023/06/09 04:41:03;;;;;;;18.37;8.93;;;13.90;1.00;;;;;;5013255;28;20420;-54
2023/06/09 04:43:32;;;;;;;16.83;8.30;;;14.10;1.00;;;;;;5012927;28;20431;-53
2023/06/09 04:45:59;;;;;;;19.33;8.40;;;14.30;1.00;;;;;;5013076;28;20473;-55
2023/06/09 04:48:29;;;;;;;12.33;8.20;;;14.60;99.90;;;;;;5012981;28;20830;-54
2023/06/09 04:50:56;;;;;;;12.67;7.70;;;14.70;99.90;;;;;;5013019;28;20494;-54
2023/06/09 04:53:22;;;;;;;13.63;7.40;;;14.90;99.90;;;;;;5013415;28;20473;-55
2023/06/09 04:55:48;;;;;;;9.97;6.57;;;15.20;99.90;;;;;;5015891;28;20500;-54
2023/06/09 04:58:15;;;;;;;11.80;6.70;;;15.30;99.90;;;;;;5016813;28;20207;-54
2023/06/09 05:00:41;;;;;;;11.60;6.77;;;15.50;99.90;;;;;;5016660;28;20430;-55
2023/06/09 05:03:06;;;;;;;12.60;7.43;;;15.70;89.60;;;;;;5016375;28;20416;-56
2023/06/09 05:05:32;;;;;;;22.00;6.80;;;15.90;38.40;;;;;;5016639;28;20208;-54
2023/06/09 05:07:58;;;;;;;14.33;7.77;;;16.00;14.70;;;;;;5015954;28;20213;-54
2023/06/09 05:10:23;;;;;;;11.50;6.90;;;16.20;1.00;;;;;;5016311;28;20182;-54
2023/06/09 05:12:49;;;;;;;13.83;7.03;;;16.40;1.00;;;;;;5016436;28;20647;-55
2023/06/09 05:15:16;;;;;;;12.10;7.70;;;16.60;1.00;;;;;;5016209;28;20621;-54
2023/06/09 05:17:42;;;;;;;11.80;7.17;;;16.70;1.00;;;;;;5016079;28;20418;-55
2023/06/09 05:20:11;;;;;;;9.33;5.80;;;16.90;1.00;;;;;;5015862;28;20415;-55
2023/06/09 05:22:37;;;;;;;13.30;6.87;;;17.00;1.00;;;;;;5016404;28;20181;-56
2023/06/09 05:25:03;;;;;;;11.07;6.33;;;17.30;1.00;;;;;;5015867;28;20535;-56
2023/06/09 05:27:29;;;;;;;14.00;6.60;;;17.40;1.00;;;;;;5015969;28;20206;-55
2023/06/09 05:29:56;;;;;;;14.63;6.83;;;17.60;1.00;;;;;;5016122;28;20418;-55
2023/06/09 05:32:21;;;;;;;12.73;6.27;;;17.80;1.00;;;;;;5015623;28;20484;-55
2023/06/09 05:34:47;;;;;;;12.90;6.03;;;17.90;1.00;;;;;;5015984;28;20422;-55
2023/06/09 05:37:15;;;;;;;12.27;6.33;;;18.00;1.00;;;;;;5015869;28;20186;-55
2023/06/09 05:39:40;;;;;;;9.10;6.53;;;18.20;1.00;;;;;;5015904;28;20187;-55
2023/06/09 05:42:08;;;;;;;17.70;6.70;;;18.30;1.00;;;;;;5015880;28;20430;-54
2023/06/09 05:44:33;;;;;;;11.33;5.83;;;18.50;1.00;;;;;;5015738;28;20191;-55
2023/06/09 05:46:59;;;;;;;11.30;6.20;;;18.80;1.00;;;;;;5015765;28;20565;-54
2023/06/09 05:49:24;;;;;;;15.70;6.60;;;18.90;1.00;;;;;;5015525;28;20187;-54
2023/06/09 05:51:50;;;;;;;10.60;6.60;;;19.10;1.00;;;;;;5015143;28;20183;-55
2023/06/09 05:54:16;;;;;;;14.90;6.20;;;19.40;1.00;;;;;;5015486;28;20176;-55
2023/06/09 05:56:44;;;;;;;14.50;6.30;;;19.50;1.00;;;;;;5015742;28;20191;-54
2023/06/09 05:59:13;;;;;;;10.30;5.73;;;19.80;1.00;;;;;;5015695;28;20417;-55
2023/06/09 06:01:39;;;;;;;13.25;6.05;;;19.90;1.00;;;;;;5015300;28;20409;-54
2023/06/09 06:04:05;;;;;;;13.40;5.80;;;20.10;1.00;;;;;;5015152;28;20187;-54
2023/06/09 06:06:31;;;;;;;14.90;6.03;;;20.30;1.00;;;;;;5014207;28;20191;-55
2023/06/09 06:08:57;;;;;;;12.43;5.63;;;20.50;1.00;;;;;;5015194;28;20586;-54
2023/06/09 06:11:23;;;;;;;13.57;6.00;;;20.70;1.00;;;;;;5015042;28;20899;-54
2023/06/09 06:13:48;;;;;;;17.23;6.30;;;20.90;1.00;;;;;;5015054;28;20471;-54
2023/06/09 06:16:14;;;;;;;9.77;5.50;;;21.00;1.00;;;;;;5014790;28;20222;-54
2023/06/09 06:18:39;;;;;;;10.53;5.93;;;21.20;1.00;;;;;;5015342;28;20182;-54
2023/06/09 06:21:05;;;;;;;11.23;6.30;;;21.40;1.00;;;;;;5015181;28;20181;-55
2023/06/09 06:23:32;;;;;;;10.80;5.67;;;21.50;1.00;;;;;;5014897;28;20177;-54
2023/06/09 06:25:57;;;;;;;10.00;5.77;;;21.60;1.00;;;;;;5014911;28;20190;-55
2023/06/09 06:28:23;;;;;;;12.80;5.90;;;21.90;1.00;;;;;;5015167;28;20465;-54
2023/06/09 06:30:50;;;;;;;11.07;6.00;;;22.10;1.00;;;;;;5015414;28;20719;-54
2023/06/09 06:33:15;;;;;;;12.50;5.60;;;22.40;1.00;;;;;;5015068;28;20520;-54
2023/06/09 06:35:41;;;;;;;10.53;5.60;;;22.50;1.00;;;;;;5014878;28;20427;-54
2023/06/09 06:38:07;;;;;;;11.43;5.70;;;22.50;1.00;;;;;;5014884;28;20192;-54
2023/06/09 06:40:32;;;;;;;10.93;5.13;;;22.60;1.00;;;;;;5014811;28;20186;-54
2023/06/09 06:42:58;;;;;;;14.40;6.27;;;22.80;1.00;;;;;;5014899;28;20238;-54
2023/06/09 06:45:26;;;;;;;10.83;5.73;;;23.00;1.00;;;;;;5014336;28;20183;-54
2023/06/09 06:47:53;;;;;;;11.80;5.93;;;23.20;1.00;;;;;;5014322;28;20828;-54
2023/06/09 06:50:19;;;;;;;9.20;5.83;;;23.50;1.00;;;;;;5014703;28;20758;-52
2023/06/09 06:52:46;;;;;;;9.50;5.40;;;23.60;1.00;;;;;;5013920;28;20475;-52
2023/06/09 06:55:11;;;;;;;10.17;4.80;;;23.70;1.00;;;;;;5013917;28;20544;-52
2023/06/09 06:57:38;;;;;;;12.97;6.27;;;24.00;1.00;;;;;;5014247;28;20516;-52
2023/06/09 07:00:14;;;;;;;18.17;6.60;;;24.20;1.00;;;;;;5014307;28;20190;-52
2023/06/09 07:02:46;;;;;;;11.87;5.73;;;24.40;1.00;;;;;;5014039;28;20505;-52
2023/06/09 07:05:12;;;;;;;11.47;5.33;;;24.60;1.00;;;;;;5014133;28;20490;-52
2023/06/09 07:07:38;;;;;;;9.93;5.67;;;24.90;1.00;;;;;;5013640;28;20461;-52
2023/06/09 07:10:04;;;;;;;12.43;5.80;;;25.20;1.00;;;;;;5014149;28;20970;-53
2023/06/09 07:12:32;;;;;;;9.60;6.00;;;25.30;1.00;;;;;;5013734;28;20186;-52
2023/06/09 07:14:57;;;;;;;11.27;5.80;;;25.40;99.90;;;;;;5013670;28;20426;-52
2023/06/09 07:17:23;;;;;;;14.30;5.70;;;25.40;99.90;;;;;;5013437;28;20886;-53
2023/06/09 07:19:48;;;;;;;12.90;6.00;;;25.40;99.90;;;;;;5013896;28;20535;-52
2023/06/09 07:22:15;;;;;;;10.63;5.37;;;25.70;1.00;;;;;;5013343;28;20184;-52
2023/06/09 07:24:41;;;;;;;12.33;5.53;;;25.90;99.90;;;;;;5013246;28;20216;-53
2023/06/09 07:27:07;;;;;;;17.43;5.77;;;26.10;99.90;;;;;;5013505;28;20510;-54
2023/06/09 07:29:35;;;;;;;10.87;6.03;;;26.40;99.90;;;;;;5013330;28;20629;-52
2023/06/09 07:32:01;;;;;;;7.70;5.43;;;26.70;99.90;;;;;;5013638;28;20417;-53
2023/06/09 07:34:29;;;;;;;14.03;5.47;;;27.00;99.90;;;;;;5013580;28;20446;-52
2023/06/09 07:36:54;;;;;;;16.40;6.13;;;27.00;99.90;;;;;;5013695;28;20427;-52
2023/06/09 07:39:20;;;;;;;8.53;5.60;;;27.20;99.90;;;;;;5013295;28;20430;-53
2023/06/09 07:41:46;;;;;;;13.20;6.60;;;27.30;99.90;;;;;;5011934;28;20207;-53
2023/06/09 07:44:12;;;;;;;14.37;6.13;;;27.20;99.90;;;;;;5013150;28;20205;-53
2023/06/09 07:46:37;;;;;;;19.17;6.67;;;27.50;99.90;;;;;;5013351;28;20415;-53
2023/06/09 07:49:03;;;;;;;14.50;5.43;;;27.70;99.90;;;;;;5013296;28;20185;-53
2023/06/09 07:51:29;;;;;;;9.53;5.80;;;27.80;99.90;;;;;;5013948;28;20207;-52
2023/06/09 07:53:55;;;;;;;8.60;5.63;;;27.70;99.90;;;;;;5013268;28;20227;-53
2023/06/09 07:56:21;;;;;;;11.97;6.27;;;27.90;99.90;;;;;;5012965;28;20824;-53
2023/06/09 07:58:49;;;;;;;9.10;5.90;;;28.10;99.90;;;;;;5013237;28;20244;-53
2023/06/09 08:01:15;;;;;;;9.10;6.03;;;28.30;99.90;;;;;;5013190;28;20416;-53
2023/06/09 08:03:41;;;;;;;13.43;5.53;;;28.20;99.90;;;;;;5012973;28;20422;-53
2023/06/09 08:06:08;;;;;;;11.03;5.57;;;28.40;99.90;;;;;;5013406;28;20547;-53
2023/06/09 08:08:34;;;;;;;9.63;4.87;;;28.50;99.90;;;;;;5012749;28;20594;-53
2023/06/09 08:11:00;;;;;;;13.43;5.80;;;28.60;99.90;;;;;;5012935;28;20423;-53
2023/06/09 08:13:27;;;;;;;10.00;4.83;;;28.90;99.90;;;;;;5013138;28;20474;-54
2023/06/09 08:19:15;;;;;;;9.30;5.40;;;29.30;99.90;;;;;;5012956;28;20383;-53
2023/06/09 08:21:43;;;;;;;8.50;5.10;;;29.30;99.90;;;;;;5013005;28;20419;-53
2023/06/09 08:24:12;;;;;;;8.67;5.53;;;29.30;99.90;;;;;;5013301;28;20190;-53
2023/06/09 08:26:38;;;;;;;5.93;4.67;;;29.70;99.90;;;;;;5013117;28;20438;-53
2023/06/09 08:29:04;;;;;;;8.77;5.80;;;29.70;99.90;;;;;;5012984;28;20877;-53
2023/06/09 08:31:31;;;;;;;6.57;5.10;;;30.00;99.90;;;;;;5016956;28;20411;-53
2023/06/09 08:33:57;;;;;;;6.17;5.10;;;30.10;99.90;;;;;;5016840;28;20481;-53
2023/06/09 08:36:23;;;;;;;7.77;5.80;;;30.00;99.90;;;;;;5016621;28;20814;-53
2023/06/09 08:38:48;;;;;;;10.80;5.90;;;29.90;99.90;;;;;;5016898;28;20184;-53
2023/06/09 08:41:15;;;;;;;13.07;5.80;;;30.10;99.90;;;;;;5015971;28;20216;-53
2023/06/09 08:43:42;;;;;;;8.47;5.70;;;30.10;99.90;;;;;;5016716;28;20520;-53
2023/06/09 08:46:10;;;;;;;13.97;5.10;;;30.10;99.90;;;;;;5016430;28;20432;-54
2023/06/09 08:48:46;;;;;;;11.97;5.20;;;30.40;99.90;;;;;;5016069;28;20509;-53
2023/06/09 08:51:12;;;;;;;10.70;5.70;;;30.80;99.90;;;;;;5016255;28;20846;-53
2023/06/09 08:53:39;;;;;;;12.43;5.87;;;31.20;99.90;;;;;;5015433;28;20474;-53
2023/06/09 08:56:05;;;;;;;10.10;5.73;;;31.20;99.90;;;;;;5016156;28;20414;-53
2023/06/09 08:58:32;;;;;;;6.53;5.20;;;31.20;99.90;;;;;;5016323;28;20423;-53
2023/06/09 09:00:57;;;;;;;8.60;6.07;;;31.10;99.90;;;;;;5015768;28;20415;-53
2023/06/09 09:03:24;;;;;;;7.83;5.27;;;31.30;99.90;;;;;;5015883;28;20477;-54
2023/06/09 09:05:49;;;;;;;10.67;5.30;;;31.30;99.90;;;;;;5015788;28;20188;-54
2023/06/09 09:08:15;;;;;;;9.20;4.70;;;31.20;99.90;;;;;;5015865;28;20469;-54
2023/06/09 09:10:45;;;;;;;7.40;4.90;;;31.20;99.90;;;;;;5015908;28;20187;-54
2023/06/09 09:13:11;;;;;;;6.80;5.30;;;31.20;99.90;;;;;;5015869;28;20214;-55
2023/06/09 09:15:40;;;;;;;14.10;5.80;;;31.10;99.90;;;;;;5015819;28;20532;-54
2023/06/09 09:18:09;;;;;;;8.47;5.40;;;31.30;99.90;;;;;;5016238;28;20196;-54
2023/06/09 09:20:35;;;;;;;6.47;5.27;;;31.20;99.90;;;;;;5015975;28;20455;-55
2023/06/09 09:23:03;;;;;;;10.63;4.65;;;31.50;99.90;;;;;;5014851;28;20771;-54
2023/06/09 09:25:30;;;;;;;6.63;5.07;;;31.50;99.90;;;;;;5016036;28;20196;-54
2023/06/09 09:28:08;;;;;;;8.73;5.00;;;31.80;99.90;;;;;;5015823;28;20454;-54
2023/06/09 09:30:47;;;;;;;7.83;4.67;;;32.20;99.90;;;;;;5015889;28;20418;-54
2023/06/09 09:33:16;;;;;;;9.13;5.00;;;32.10;99.90;;;;;;5015461;28;20430;-54
2023/06/09 09:36:08;;;;;;;10.03;5.20;;;32.10;99.90;;;;;;5015277;28;20457;-54
2023/06/09 09:38:33;;;;;;;6.23;5.10;;;32.00;99.90;;;;;;5015470;28;20458;-55
2023/06/09 09:41:00;;;;;;;15.57;4.70;;;32.10;99.90;;;;;;5014901;28;20481;-53
2023/06/09 09:43:27;;;;;;;13.90;5.13;;;31.90;99.90;;;;;;5015336;28;20633;-53
2023/06/09 09:45:55;;;;;;;15.40;5.30;;;31.90;99.90;;;;;;5014949;28;20503;-53
2023/06/09 09:48:23;;;;;;;13.37;5.40;;;32.30;99.90;;;;;;5015124;28;20484;-53
2023/06/09 09:50:53;;;;;;;10.90;4.70;;;32.50;99.90;;;;;;5014838;28;20427;-53
2023/06/09 09:53:23;;;;;;;10.60;5.17;;;32.60;99.90;;;;;;5014721;28;20490;-53
2023/06/09 09:55:54;;;;;;;14.27;5.13;;;32.50;99.90;;;;;;5015289;28;20450;-53
2023/06/09 09:58:31;;;;;;;11.00;5.30;;;32.60;99.90;;;;;;5014925;28;20441;-53
2023/06/09 10:01:01;;;;;;;8.63;5.63;;;32.80;99.90;;;;;;5015286;28;20415;-53
2023/06/09 10:03:27;;;;;;;5.70;4.87;;;32.80;99.90;;;;;;5015019;28;20431;-53
2023/06/09 10:05:55;;;;;;;7.20;4.87;;;32.90;99.90;;;;;;5014757;28;20411;-53
2023/06/09 10:08:24;;;;;;;6.93;4.60;;;33.30;99.90;;;;;;5014947;28;20462;-52
2023/06/09 10:10:51;;;;;;;7.07;5.03;;;33.30;99.90;;;;;;5014690;28;20428;-53
2023/06/09 10:13:17;;;;;;;9.00;4.67;;;32.90;99.90;;;;;;5014882;28;20386;-53
2023/06/09 10:15:43;;;;;;;6.87;4.57;;;33.10;99.90;;;;;;5014357;28;20840;-52
2023/06/09 10:18:11;;;;;;;6.50;4.80;;;33.40;99.90;;;;;;5015146;28;20634;-53
2023/06/09 10:20:37;;;;;;;5.83;4.53;;;33.80;99.90;;;;;;5014577;28;20411;-52
2023/06/09 10:23:05;;;;;;;5.90;4.60;;;33.80;99.90;;;;;;5014468;28;20962;-53
2023/06/09 10:25:30;;;;;;;6.70;4.73;;;33.60;99.90;;;;;;5014582;28;20423;-53
2023/06/09 10:27:56;;;;;;;6.17;4.40;;;33.40;99.90;;;;;;5014237;28;20554;-53
2023/06/09 10:30:22;;;;;;;6.40;4.50;;;33.50;99.90;;;;;;5014581;28;20176;-53
2023/06/09 10:32:57;;;;;;;4.67;4.27;;;33.80;99.90;;;;;;5014380;28;20227;-53
2023/06/09 10:35:28;;;;;;;8.60;4.50;;;34.00;99.90;;;;;;5014172;28;20390;-53
2023/06/09 10:37:56;;;;;;;11.57;4.90;;;33.60;99.90;;;;;;5014460;28;20433;-53
2023/06/09 10:40:29;;;;;;;7.10;4.80;;;33.80;99.90;;;;;;5014176;28;20423;-52
2023/06/09 10:43:19;;;;;;;5.40;4.50;;;34.00;99.90;;;;;;5014414;28;20456;-53
2023/06/09 10:45:56;;;;;;;6.93;4.83;;;34.10;99.90;;;;;;5014117;28;20410;-53
2023/06/09 10:48:43;;;;;;;8.63;4.63;;;34.10;99.90;;;;;;5014083;28;20540;-53
2023/06/09 10:51:26;;;;;;;8.07;4.43;;;34.10;99.90;;;;;;5013787;28;20428;-53
2023/06/09 10:54:10;;;;;;;6.77;4.80;;;33.90;99.90;;;;;;5012829;28;20981;-53
2023/06/09 10:56:40;;;;;;;6.27;4.77;;;34.20;99.90;;;;;;5014206;28;20485;-53
2023/06/09 10:59:25;;;;;;;7.00;4.63;;;34.30;99.90;;;;;;5013919;28;20419;-53
2023/06/09 11:02:00;;;;;;;8.03;5.07;;;33.90;99.90;;;;;;5013267;28;20434;-52
2023/06/09 11:04:39;;;;;;;8.40;4.60;;;34.20;99.90;;;;;;5013682;28;20455;-55
2023/06/09 11:07:15;;;;;;;7.20;4.40;;;34.20;99.90;;;;;;5013655;28;20462;-53
2023/06/09 11:10:01;;;;;;;8.10;4.90;;;34.10;99.90;;;;;;5013596;28;20820;-53
2023/06/09 11:12:38;;;;;;;5.07;4.30;;;34.30;99.90;;;;;;5013541;28;20462;-54
2023/06/09 11:15:06;;;;;;;8.23;4.50;;;34.60;99.90;;;;;;5028672;28;20481;-54
2023/06/09 11:17:41;;;;;;;4.40;3.80;;;34.80;99.90;;;;;;5013483;28;20433;-52
2023/06/09 11:20:10;;;;;;;6.43;4.73;;;34.80;99.90;;;;;;5012884;28;20930;-54
2023/06/09 11:22:41;;;;;;;5.57;3.83;;;35.10;99.90;;;;;;5013727;28;20415;-54
2023/06/09 11:25:08;;;;;;;6.03;4.13;;;35.40;99.90;;;;;;5013267;28;20421;-52
2023/06/09 11:27:34;;;;;;;7.80;4.60;;;35.50;99.90;;;;;;5011926;28;20573;-53
2023/06/09 11:30:11;;;;;;;6.93;4.23;;;35.70;99.90;;;;;;5013306;28;20416;-54
2023/06/09 11:32:47;;;;;;;6.03;4.40;;;35.70;99.90;;;;;;5013652;28;20751;-54
2023/06/09 11:35:27;;;;;;;6.43;4.50;;;35.70;99.90;;;;;;5013666;28;20421;-54
2023/06/09 11:37:58;;;;;;;12.60;4.43;;;35.70;99.90;;;;;;5013715;28;20467;-54
2023/06/09 11:40:28;;;;;;;9.23;4.80;;;35.70;99.90;;;;;;5013407;28;20385;-54
2023/06/09 11:42:58;;;;;;;8.97;4.83;;;35.70;99.90;;;;;;5013534;28;20434;-54
2023/06/09 11:45:25;;;;;;;9.60;4.33;;;35.50;99.90;;;;;;5013277;28;20421;-55
2023/06/09 11:47:56;;;;;;;5.27;4.27;;;35.70;99.90;;;;;;5013341;28;20466;-54
2023/06/09 11:50:23;;;;;;;6.17;4.40;;;35.80;99.90;;;;;;5013182;28;20526;-54
2023/06/09 11:53:02;;;;;;;8.23;4.10;;;36.10;99.90;;;;;;5012982;28;20482;-55
2023/06/09 11:55:28;;;;;;;7.83;4.20;;;36.40;99.90;;;;;;5013011;28;20898;-54
2023/06/09 11:57:54;;;;;;;4.77;4.07;;;36.40;99.90;;;;;;5013196;28;20441;-54
2023/06/09 12:00:26;;;;;;;10.77;4.67;;;36.10;99.90;;;;;;5013381;28;20833;-54
2023/06/09 12:02:52;;;;;;;7.10;4.77;;;35.80;99.90;;;;;;5013344;28;20246;-54
2023/06/09 12:05:19;;;;;;;4.67;4.00;;;36.00;99.90;;;;;;5014738;28;20887;-55
2023/06/09 12:07:45;;;;;;;7.50;4.87;;;36.20;99.90;;;;;;5017533;28;20477;-55
2023/06/09 12:10:19;;;;;;;4.97;3.40;;;36.30;99.90;;;;;;5017003;28;20433;-54
2023/06/09 12:12:50;;;;;;;7.80;4.23;;;36.50;99.90;;;;;;5016998;28;20493;-54
2023/06/09 12:15:17;;;;;;;7.53;3.40;;;36.30;99.90;;;;;;5016764;28;20418;-54
2023/06/09 12:17:43;;;;;;;10.57;4.60;;;36.10;99.90;;;;;;5016633;28;20463;-55
2023/06/09 12:20:22;;;;;;;4.17;3.13;;;36.00;99.90;;;;;;5015946;28;20406;-54
2023/06/09 12:22:49;;;;;;;7.60;3.80;;;35.70;99.90;;;;;;5017103;28;20415;-54
2023/06/09 12:25:26;;;;;;;5.93;3.20;;;35.50;99.90;;;;;;5016588;28;20777;-55
2023/06/09 12:28:29;;;;;;;5.67;3.57;;;35.60;99.90;;;;;;5016755;28;20407;-55
2023/06/09 12:30:55;;;;;;;5.17;4.20;;;35.20;99.90;;;;;;5016968;28;20385;-55
2023/06/09 12:33:26;;;;;;;6.60;3.60;;;35.20;99.90;;;;;;5016594;28;20430;-55
2023/06/09 12:35:54;;;;;;;3.93;3.60;;;35.20;99.90;;;;;;5016774;28;20460;-54
2023/06/09 12:38:25;;;;;;;4.43;4.00;;;35.40;99.90;;;;;;5016374;28;20509;-54
2023/06/09 12:41:02;;;;;;;5.70;4.10;;;35.80;99.90;;;;;;5016593;28;20419;-54
2023/06/09 12:43:41;;;;;;;6.23;4.30;;;36.00;99.90;;;;;;5014850;28;20784;-54
2023/06/09 12:46:07;;;;;;;6.63;3.60;;;36.10;99.90;;;;;;5016083;28;20449;-54
2023/06/09 12:48:32;;;;;;;5.07;3.50;;;36.00;99.90;;;;;;5015319;28;20454;-54
2023/06/09 12:50:59;;;;;;;7.03;3.97;;;35.90;99.90;;;;;;5016278;28;20184;-54
2023/06/09 12:53:24;;;;;;;6.60;3.80;;;36.10;99.90;;;;;;5016535;28;20284;-55